createdAt,value
2023-10-27T00:01:25.104Z,98805.44
2023-10-27T00:04:27.591Z,98807.03
2023-10-27T00:07:32.795Z,98802.69
2023-10-27T00:10:38.013Z,98800.72
2023-10-27T00:13:40.099Z,98807.72
2023-10-27T00:16:44.882Z,98800.72
2023-10-27T00:19:48.575Z,98806.56
2023-10-27T00:22:51.043Z,98797.84
2023-10-27T00:25:53.372Z,98796.38
2023-10-27T00:28:56.278Z,98787.88
2023-10-27T00:31:59.297Z,98780.22
2023-10-27T00:35:06.044Z,98789.75
2023-10-27T00:38:08.631Z,98767.09
2023-10-27T00:41:10.883Z,98781.25
2023-10-27T00:44:13.807Z,98778.41
2023-10-27T00:47:17.235Z,98774.88
2023-10-27T00:50:20.056Z,98774.19
2023-10-27T00:53:23.130Z,98772.03
2023-10-27T00:56:28.906Z,98778.63
2023-10-27T00:59:33.794Z,98785.28
2023-10-27T01:02:36.390Z,98766.06
2023-10-27T01:05:39.066Z,98780.81
2023-10-27T01:08:41.909Z,98768.69
2023-10-27T01:11:44.264Z,98787.22
2023-10-27T01:14:46.790Z,98772.56
2023-10-27T01:17:50.777Z,98774.06
2023-10-27T01:20:56.554Z,98776.81
2023-10-27T01:24:00.264Z,98770.41
2023-10-27T01:27:06.727Z,98765.84
2023-10-27T01:30:13.670Z,98762.63
2023-10-27T01:33:16.075Z,98762.63
2023-10-27T01:36:19.567Z,98753.13
2023-10-27T01:39:23.338Z,98752.44
2023-10-27T01:42:27.699Z,98751.84
2023-10-27T01:45:31.727Z,98751.72
2023-10-27T01:48:38.594Z,98729.66
2023-10-27T01:51:40.915Z,98740.53
2023-10-27T01:54:43.164Z,98729.19
2023-10-27T01:57:47.060Z,98726.44
2023-10-27T02:00:49.312Z,98724.72
2023-10-27T02:03:52.347Z,98720.63
2023-10-27T02:06:57.020Z,98707.69
2023-10-27T02:10:00.818Z,98728.03
2023-10-27T02:13:03.748Z,98706.84
2023-10-27T02:16:12.649Z,98713.00
2023-10-27T02:19:15.473Z,98702.38
2023-10-27T02:22:22.524Z,98689.59
2023-10-27T02:25:25.761Z,98663.84
2023-10-27T02:28:29.252Z,98690.81
2023-10-27T02:31:31.735Z,98695.13
2023-10-27T02:34:38.617Z,98703.84
2023-10-27T02:37:42.780Z,98678.56
2023-10-27T02:40:46.987Z,98695.00
2023-10-27T02:43:52.613Z,98691.69
2023-10-27T02:46:54.994Z,98680.63
2023-10-27T02:49:57.224Z,98668.94
2023-10-27T02:53:04.748Z,98651.13
2023-10-27T02:56:10.645Z,98662.72
2023-10-27T02:59:16.183Z,98668.50
2023-10-27T03:02:19.399Z,98660.59
2023-10-27T03:05:23.054Z,98656.38
2023-10-27T03:08:26.838Z,98658.06
2023-10-27T03:11:28.920Z,98664.38
2023-10-27T03:14:31.177Z,98651.66
2023-10-27T03:17:36.340Z,98643.78
2023-10-27T03:20:41.171Z,98644.97
2023-10-27T03:23:45.011Z,98628.53
2023-10-27T03:26:47.477Z,98630.22
2023-10-27T03:29:49.993Z,98619.75
2023-10-27T03:32:52.358Z,98613.34
2023-10-27T03:35:55.328Z,98609.69
2023-10-27T03:38:57.644Z,98607.84
2023-10-27T03:42:02.210Z,98620.22
2023-10-27T03:45:07.294Z,98598.06
2023-10-27T03:48:11.233Z,98590.03
2023-10-27T03:51:16.891Z,98591.19
2023-10-27T03:54:22.513Z,98591.66
2023-10-27T03:57:24.884Z,98580.66
2023-10-27T04:00:27.711Z,98546.38
2023-10-27T04:03:33.197Z,98547.72
2023-10-27T04:06:35.398Z,98551.34
2023-10-27T04:09:37.694Z,98541.75
2023-10-27T04:12:40.359Z,98540.22
2023-10-27T04:15:46.401Z,98536.09
2023-10-27T04:18:53.214Z,98519.97
2023-10-27T04:21:55.552Z,98530.34
2023-10-27T04:24:58.238Z,98526.34
2023-10-27T04:28:00.828Z,98518.03
2023-10-27T04:31:06.468Z,98505.28
2023-10-27T04:34:10.152Z,98502.06
2023-10-27T04:37:14.044Z,98496.47
2023-10-27T04:40:16.601Z,98481.47
2023-10-27T04:43:23.697Z,98476.22
2023-10-27T04:46:28.072Z,98474.94
2023-10-27T04:49:30.577Z,98466.16
2023-10-27T04:52:32.966Z,98408.22
2023-10-27T04:55:38.390Z,98429.63
2023-10-27T04:58:45.935Z,98431.28
2023-10-27T05:01:51.885Z,98415.38
2023-10-27T05:04:56.285Z,98405.22
2023-10-27T05:08:01.162Z,98424.09
2023-10-27T05:11:05.252Z,98404.22
2023-10-27T05:14:12.104Z,98414.84
2023-10-27T05:17:18.858Z,98396.25
2023-10-27T05:20:23.799Z,98374.00
2023-10-27T05:23:29.878Z,98391.63
2023-10-27T05:26:33.415Z,98388.63
2023-10-27T05:29:35.972Z,98388.34
2023-10-27T05:32:38.418Z,98406.88
2023-10-27T05:35:40.645Z,98393.78
2023-10-27T05:38:49.860Z,98369.91
2023-10-27T05:41:52.017Z,98363.88
2023-10-27T05:44:54.578Z,98362.56
2023-10-27T05:47:56.911Z,98369.44
2023-10-27T05:50:58.988Z,98355.72
2023-10-27T05:54:01.604Z,98358.66
2023-10-27T05:57:09.882Z,98356.03
2023-10-27T06:00:13.469Z,98360.03
2023-10-27T06:03:19.885Z,98349.19
2023-10-27T06:06:22.988Z,98347.34
2023-10-27T06:10:15.537Z,98345.81
2023-10-27T06:13:18.383Z,98345.81
2023-10-27T06:16:26.308Z,98304.75
2023-10-27T06:19:30.119Z,98297.19
2023-10-27T06:22:46.559Z,98322.13
2023-10-27T06:25:56.127Z,98312.16
2023-10-27T06:29:10.555Z,98276.13
2023-10-27T06:32:13.116Z,98272.44
2023-10-27T06:35:18.962Z,98305.91
2023-10-27T06:38:25.029Z,98297.53
2023-10-27T06:41:32.008Z,98289.31
2023-10-27T06:44:55.438Z,98258.28
2023-10-27T06:48:06.242Z,98278.75
2023-10-27T06:51:19.623Z,98258.84
2023-10-27T06:54:26.667Z,98281.72
2023-10-27T06:57:33.578Z,98280.19
2023-10-27T07:00:37.159Z,98276.75
2023-10-27T07:04:08.746Z,98263.59
2023-10-27T07:07:38.238Z,98268.66
2023-10-27T07:14:42.413Z,98257.31
2023-10-27T07:17:59.009Z,98232.16
2023-10-27T07:21:18.985Z,98225.59
2023-10-27T07:24:25.154Z,98249.50
2023-10-27T07:27:31.919Z,98251.63
2023-10-27T07:30:35.619Z,98250.84
2023-10-27T07:33:40.401Z,98226.50
2023-10-27T07:36:47.228Z,98208.28
2023-10-27T07:40:14.236Z,98190.09
2023-10-27T07:47:46.620Z,98209.22
2023-10-27T07:51:13.976Z,98179.59
2023-10-27T07:55:05.571Z,98207.78
2023-10-27T07:58:20.538Z,98208.31
2023-10-27T08:02:12.390Z,98159.06
2023-10-27T08:05:42.676Z,98189.13
2023-10-27T08:09:01.131Z,98168.66
2023-10-27T08:12:14.980Z,98187.06
2023-10-27T08:15:53.947Z,98182.88
2023-10-27T08:19:00.417Z,98130.44
2023-10-27T08:22:10.031Z,98130.81
2023-10-27T08:25:14.335Z,98164.16
2023-10-27T08:28:32.946Z,98112.25
2023-10-27T08:31:38.217Z,98151.59
2023-10-27T08:35:03.169Z,98151.59
2023-10-27T08:38:11.116Z,98146.81
2023-10-27T08:41:20.994Z,98118.28
2023-10-27T08:44:25.724Z,98098.66
2023-10-27T08:47:33.390Z,98118.91
2023-10-27T08:50:44.116Z,98094.09
2023-10-27T08:53:59.572Z,98090.66
2023-10-27T08:57:31.609Z,98039.56
2023-10-27T09:00:54.388Z,98048.38
2023-10-27T09:04:44.578Z,98074.41
2023-10-27T09:08:08.319Z,98068.84
2023-10-27T09:11:27.447Z,98041.19
2023-10-27T09:14:41.384Z,98014.72
2023-10-27T09:18:33.885Z,98017.72
2023-10-27T09:26:00.520Z,97990.00
2023-10-27T09:33:29.280Z,98009.47
2023-10-27T09:36:35.567Z,97982.00
2023-10-27T09:39:40.164Z,97963.03
2023-10-27T09:42:54.308Z,97961.97
2023-10-27T09:46:00.540Z,97940.34
2023-10-27T09:49:18.130Z,97937.72
2023-10-27T09:52:57.292Z,97936.69
2023-10-27T09:56:26.929Z,97927.72
2023-10-27T10:00:03.378Z,97920.88
2023-10-27T10:20:08.083Z,97894.06
2023-10-27T10:23:37.264Z,97868.97
2023-10-27T10:27:09.481Z,97914.69
2023-10-27T10:30:47.121Z,97918.63
2023-10-27T10:37:28.628Z,97910.44
2023-10-27T10:40:40.670Z,97874.28
2023-10-27T10:43:45.232Z,97896.47
2023-10-27T10:46:51.553Z,97882.69
2023-10-27T10:50:08.079Z,97884.31
2023-10-27T10:53:28.729Z,97863.19
2023-10-27T10:57:23.929Z,97894.34
2023-10-27T11:00:35.803Z,97854.47
2023-10-27T11:03:38.687Z,97859.72
2023-10-27T11:06:55.082Z,97837.84
2023-10-27T11:16:02.746Z,97860.81
2023-10-27T11:19:31.452Z,97847.06
2023-10-27T11:26:59.538Z,97896.41
2023-10-27T11:30:03.979Z,97919.84
2023-10-27T11:33:10.581Z,97940.66
2023-10-27T11:36:15.155Z,97944.09
2023-10-27T11:39:38.760Z,97933.50
2023-10-27T11:42:43.152Z,97977.94
2023-10-27T11:45:48.475Z,97925.91
2023-10-27T11:48:51.197Z,97962.09
2023-10-27T11:51:57.307Z,97935.16
2023-10-27T11:55:25.158Z,97960.50
2023-10-27T11:58:29.471Z,97966.56
2023-10-27T12:01:46.065Z,97970.81
2023-10-27T12:04:49.003Z,97961.81
2023-10-27T12:07:52.667Z,97963.94
2023-10-27T12:10:58.402Z,97931.44
2023-10-27T12:14:03.796Z,97968.13
2023-10-27T12:17:16.600Z,98003.50
2023-10-27T12:21:33.386Z,98024.09
2023-10-27T12:26:03.603Z,98025.94
2023-10-27T12:29:20.766Z,98007.44
2023-10-27T12:32:55.877Z,98045.50
2023-10-27T12:36:54.696Z,98039.69
2023-10-27T12:39:57.777Z,98053.97
2023-10-27T12:43:01.769Z,98075.06
2023-10-27T12:46:06.484Z,98053.31
2023-10-27T12:49:15.682Z,98071.53
2023-10-27T12:52:20.122Z,98096.88
2023-10-27T12:55:23.878Z,98092.91
2023-10-27T12:58:27.339Z,98062.97
2023-10-27T13:01:35.222Z,98029.94
2023-10-27T13:04:38.402Z,98075.25
2023-10-27T13:08:00.860Z,98144.59
2023-10-27T13:11:07.750Z,98165.88
2023-10-27T13:14:29.850Z,98181.16
2023-10-27T13:17:33.397Z,98127.81
2023-10-27T13:20:39.637Z,98115.66
2023-10-27T13:23:45.925Z,98071.03
2023-10-27T13:26:48.590Z,98107.28
2023-10-27T13:29:58.730Z,98071.03
2023-10-27T13:33:07.348Z,98218.13
2023-10-27T13:36:12.750Z,98153.25
2023-10-27T13:39:19.300Z,98191.75
2023-10-27T13:42:26.143Z,98196.03
2023-10-27T13:45:29.726Z,98152.19
2023-10-27T13:48:35.303Z,98181.38
2023-10-27T13:51:40.502Z,98158.13
2023-10-27T13:54:52.053Z,98109.19
2023-10-27T13:57:58.939Z,98127.13
2023-10-27T14:01:05.813Z,98162.84
2023-10-27T14:04:09.699Z,98179.09
2023-10-27T14:07:13.322Z,98183.09
2023-10-27T14:10:22.934Z,98211.94
2023-10-27T14:13:27.600Z,98233.19
2023-10-27T14:16:31.322Z,98240.69
2023-10-27T14:19:37.185Z,98241.91
2023-10-27T14:22:39.751Z,98244.97
2023-10-27T14:25:43.404Z,98246.97
2023-10-27T14:28:46.273Z,98252.00
2023-10-27T14:31:50.195Z,98252.19
2023-10-27T14:34:55.767Z,98280.41
2023-10-27T14:38:01.839Z,98277.72
2023-10-27T14:41:05.724Z,98272.94
2023-10-27T14:44:08.591Z,98278.66
2023-10-27T14:47:12.573Z,98284.00
2023-10-27T14:50:20.177Z,98265.59
2023-10-27T14:53:26.819Z,98319.34
2023-10-27T14:56:35.649Z,98305.56
2023-10-27T14:59:49.079Z,98333.94
2023-10-27T15:03:04.045Z,98331.31
2023-10-27T15:06:11.683Z,98366.56
2023-10-27T15:09:16.072Z,98345.03
2023-10-27T15:12:22.543Z,98338.19
2023-10-27T15:15:30.630Z,98374.47
2023-10-27T15:18:52.285Z,98377.53
2023-10-27T15:21:55.393Z,98368.88
2023-10-27T15:25:01.952Z,98385.56
2023-10-27T15:28:04.733Z,98402.63
2023-10-27T15:31:14.542Z,98411.34
2023-10-27T15:34:24.172Z,98421.06
2023-10-27T15:37:27.328Z,98402.97
2023-10-27T15:40:38.796Z,98399.84
2023-10-27T15:43:46.123Z,98418.91
2023-10-27T15:46:48.993Z,98439.97
2023-10-27T15:49:55.610Z,98457.94
2023-10-27T15:53:06.453Z,98450.50
2023-10-27T15:56:21.290Z,98474.78
2023-10-27T15:59:28.449Z,98456.59
2023-10-27T16:02:38.939Z,98474.78
2023-10-27T16:05:57.426Z,98448.81
2023-10-27T16:09:35.344Z,98504.84
2023-10-27T16:12:38.707Z,98489.56
2023-10-27T16:15:47.480Z,98506.78
2023-10-27T16:19:09.952Z,98531.38
2023-10-27T16:22:15.115Z,98531.66
2023-10-27T16:25:23.135Z,98551.97
2023-10-27T16:28:29.681Z,98544.44
2023-10-27T16:31:39.887Z,98538.97
2023-10-27T16:34:45.811Z,98583.88
2023-10-27T16:37:53.573Z,98578.13
2023-10-27T16:41:00.055Z,98579.44
2023-10-27T16:44:02.852Z,98608.78
2023-10-27T16:47:10.053Z,98624.81
2023-10-27T16:50:22.192Z,98629.41
2023-10-27T16:53:24.853Z,98625.06
2023-10-27T16:56:28.584Z,98629.19
2023-10-27T16:59:32.792Z,98648.56
2023-10-27T17:02:38.826Z,98655.19
2023-10-27T17:09:01.762Z,98635.75
2023-10-27T17:12:07.298Z,98664.69
2023-10-27T17:19:05.187Z,98676.72
2023-10-27T17:22:22.498Z,98669.88
2023-10-27T17:28:48.005Z,98680.16
2023-10-27T17:32:02.220Z,98689.56
2023-10-27T17:35:07.280Z,98724.66
2023-10-27T17:38:24.015Z,98744.31
2023-10-27T17:41:29.692Z,98710.69
2023-10-27T17:44:36.763Z,98744.00
2023-10-27T17:47:43.583Z,98736.31
2023-10-27T17:50:50.388Z,98764.00
2023-10-27T17:53:54.990Z,98757.81
2023-10-27T17:56:58.338Z,98778.19
2023-10-27T18:00:02.046Z,98792.59
2023-10-27T18:03:07.690Z,98799.00
2023-10-27T18:06:19.736Z,98764.16
2023-10-27T18:09:22.426Z,98790.00
2023-10-27T18:12:27.766Z,98790.38
2023-10-27T18:15:32.836Z,98796.06
2023-10-27T18:18:36.781Z,98810.81
2023-10-27T18:21:47.423Z,98833.50
2023-10-27T18:24:50.082Z,98813.03
2023-10-27T18:27:52.577Z,98839.16
2023-10-27T18:30:55.833Z,98841.06
2023-10-27T18:33:58.908Z,98821.06
2023-10-27T18:37:01.442Z,98839.16
2023-10-27T18:40:04.094Z,98840.22
2023-10-27T18:43:06.473Z,98822.88
2023-10-27T18:46:11.613Z,98822.91
2023-10-27T18:49:16.906Z,98842.13
2023-10-27T18:52:22.786Z,98840.03
2023-10-27T18:55:26.005Z,98870.72
2023-10-27T18:58:31.991Z,98833.81
2023-10-27T19:01:37.509Z,98828.50
2023-10-27T19:04:57.324Z,98854.63
2023-10-27T19:08:07.175Z,98876.44
2023-10-27T19:11:11.891Z,98875.50
2023-10-27T19:14:14.082Z,98885.94
2023-10-27T19:25:36.146Z,98919.91
2023-10-27T19:28:39.251Z,98920.78
2023-10-27T19:31:49.362Z,98930.16
2023-10-27T19:34:52.743Z,98941.69
2023-10-27T19:37:56.298Z,98932.34
2023-10-27T19:40:59.851Z,98952.94
2023-10-27T19:44:05.148Z,98961.47
2023-10-27T19:47:08.931Z,98979.25
2023-10-27T19:50:11.786Z,98975.97
2023-10-27T19:53:20.306Z,98980.19
2023-10-27T19:56:47.485Z,98985.44
2023-10-27T19:59:50.464Z,98992.53
2023-10-27T20:02:56.685Z,98999.19
2023-10-27T20:06:26.237Z,99001.16
2023-10-27T20:09:41.165Z,98994.72
2023-10-27T20:12:44.822Z,99012.78
2023-10-27T20:15:54.452Z,99018.69
2023-10-27T20:18:59.602Z,99022.63
2023-10-27T20:22:06.221Z,99042.22
2023-10-27T20:25:16.772Z,99052.56
2023-10-27T20:28:20.394Z,99057.94
2023-10-27T20:31:30.485Z,99061.91
2023-10-27T20:34:58.038Z,99059.81
2023-10-27T20:38:11.770Z,99073.06
2023-10-27T20:41:17.612Z,99074.13
2023-10-27T20:44:40.306Z,99062.53
2023-10-27T20:47:51.075Z,99072.13
2023-10-27T20:51:05.216Z,99076.47
2023-10-27T20:54:28.867Z,99073.84
2023-10-27T20:57:33.963Z,99101.69
2023-10-27T21:00:41.013Z,99121.06
2023-10-27T21:04:07.640Z,99110.00
2023-10-27T21:07:12.897Z,99126.19
2023-10-27T21:10:20.959Z,99118.53
2023-10-27T21:13:40.189Z,99111.53
2023-10-27T21:16:48.427Z,99118.56
2023-10-27T21:19:51.924Z,99107.41
2023-10-27T21:22:58.250Z,99094.63
2023-10-27T21:26:07.125Z,99125.66
2023-10-27T21:29:10.731Z,99103.41
2023-10-27T21:32:20.269Z,99140.41
2023-10-27T21:35:35.589Z,99120.44
2023-10-27T21:38:44.094Z,99154.53
2023-10-27T21:41:48.784Z,99134.41
2023-10-27T21:44:53.213Z,99143.31
2023-10-27T21:47:58.675Z,99124.00
2023-10-27T21:51:08.491Z,99148.22
2023-10-27T21:54:16.942Z,99148.88
2023-10-27T21:57:22.424Z,99152.31
2023-10-27T22:00:39.083Z,99151.97
2023-10-27T22:03:41.956Z,99160.84
2023-10-27T22:06:44.523Z,99171.13
2023-10-27T22:09:47.641Z,99176.00
2023-10-27T22:12:50.171Z,99173.16
2023-10-27T22:15:53.452Z,99180.84
2023-10-27T22:18:56.236Z,99181.88
2023-10-27T22:21:59.081Z,99191.38
2023-10-27T22:25:01.945Z,99184.34
2023-10-27T22:28:16.392Z,99178.69
2023-10-27T22:31:21.618Z,99196.22
2023-10-27T22:34:25.293Z,99200.47
2023-10-27T22:37:27.855Z,99193.63
2023-10-27T22:40:30.941Z,99202.47
2023-10-27T22:43:37.225Z,99204.06
2023-10-27T22:46:39.779Z,99186.94
2023-10-27T22:49:44.258Z,99196.81
2023-10-27T22:52:46.906Z,99179.50
2023-10-27T22:55:49.561Z,99188.97
2023-10-27T22:58:53.428Z,99194.81
2023-10-27T23:01:58.670Z,99206.91
2023-10-27T23:05:01.196Z,99211.94
2023-10-27T23:08:05.913Z,99197.00
2023-10-27T23:11:12.142Z,99218.19
2023-10-27T23:14:14.872Z,99210.31
2023-10-27T23:17:19.209Z,99220.41
2023-10-27T23:20:24.912Z,99209.09
2023-10-27T23:23:28.225Z,99213.38
2023-10-27T23:26:30.862Z,99232.75
2023-10-27T23:29:34.749Z,99232.13
2023-10-27T23:32:37.231Z,99231.50
2023-10-27T23:35:42.834Z,99233.94
2023-10-27T23:38:46.533Z,99238.56
2023-10-27T23:41:50.430Z,99260.59
2023-10-27T23:44:53.515Z,99267.03
2023-10-27T23:48:00.786Z,99280.97
2023-10-27T23:51:03.197Z,99292.88
2023-10-27T23:54:06.419Z,99289.84
2023-10-27T23:57:08.764Z,99280.78
